createdAt,value
2023-05-10T00:00:25.324Z,23.52
2023-05-10T00:01:25.337Z,23.55
2023-05-10T00:02:25.431Z,23.57
2023-05-10T00:03:25.485Z,23.58
2023-05-10T00:04:25.432Z,23.59
2023-05-10T00:05:25.466Z,23.59
2023-05-10T00:06:25.502Z,23.60
2023-05-10T00:07:25.548Z,23.60
2023-05-10T00:08:25.600Z,23.59
2023-05-10T00:09:25.628Z,23.59
2023-05-10T00:10:25.668Z,23.60
2023-05-10T00:11:25.708Z,23.60
2023-05-10T00:12:25.770Z,23.60
2023-05-10T00:13:25.996Z,23.60
2023-05-10T00:14:25.815Z,23.59
2023-05-10T00:15:25.858Z,23.60
2023-05-10T00:16:25.987Z,23.60
2023-05-10T00:17:25.969Z,23.60
2023-05-10T00:18:25.968Z,23.60
2023-05-10T00:19:26.003Z,23.59
2023-05-10T00:20:26.045Z,23.58
2023-05-10T00:21:26.090Z,23.59
2023-05-10T00:22:26.137Z,23.59
2023-05-10T00:23:26.172Z,23.58
2023-05-10T00:24:26.221Z,23.58
2023-05-10T00:25:26.236Z,23.58
2023-05-10T00:26:26.275Z,23.58
2023-05-10T00:27:26.317Z,23.58
2023-05-10T00:28:26.367Z,23.58
2023-05-10T00:29:26.423Z,23.58
2023-05-10T00:30:26.450Z,23.58
2023-05-10T00:31:26.519Z,23.58
2023-05-10T00:32:26.557Z,23.58
2023-05-10T00:33:26.607Z,23.58
2023-05-10T00:34:26.604Z,23.58
2023-05-10T00:35:26.646Z,23.58
2023-05-10T00:36:26.696Z,23.58
2023-05-10T00:37:26.745Z,23.58
2023-05-10T00:38:26.792Z,23.58
2023-05-10T00:39:26.819Z,23.57
2023-05-10T00:40:26.862Z,23.57
2023-05-10T00:41:26.912Z,23.57
2023-05-10T00:42:26.949Z,23.58
2023-05-10T00:43:26.997Z,23.57
2023-05-10T00:44:27.035Z,23.57
2023-05-10T00:45:27.115Z,23.57
2023-05-10T00:46:27.165Z,23.57
2023-05-10T00:47:27.223Z,23.57
2023-05-10T00:48:27.213Z,23.56
2023-05-10T00:49:27.259Z,23.56
2023-05-10T00:50:27.298Z,23.56
2023-05-10T00:51:27.334Z,23.57
2023-05-10T00:52:27.381Z,23.56
2023-05-10T00:53:27.428Z,23.56
2023-05-10T00:54:27.463Z,23.55
2023-05-10T00:55:27.515Z,23.55
2023-05-10T00:56:27.544Z,23.55
2023-05-10T00:57:27.576Z,23.55
2023-05-10T00:58:27.624Z,23.55
2023-05-10T00:59:27.675Z,23.54
2023-05-10T01:00:27.706Z,23.55
2023-05-10T01:01:27.844Z,23.55
2023-05-10T01:02:27.894Z,23.55
2023-05-10T01:03:27.863Z,23.54
2023-05-10T01:04:27.930Z,23.54
2023-05-10T01:05:27.929Z,23.54
2023-05-10T01:06:27.981Z,23.54
2023-05-10T01:07:28.027Z,23.54
2023-05-10T01:08:28.069Z,23.54
2023-05-10T01:09:28.114Z,23.54
2023-05-10T01:10:28.160Z,23.54
2023-05-10T01:11:28.209Z,23.54
2023-05-10T01:12:28.279Z,23.54
2023-05-10T01:13:28.316Z,23.54
2023-05-10T01:14:28.341Z,23.54
2023-05-10T01:15:28.386Z,23.54
2023-05-10T01:16:28.494Z,23.54
2023-05-10T01:17:28.554Z,23.53
2023-05-10T01:18:28.513Z,23.53
2023-05-10T01:19:28.561Z,23.53
2023-05-10T01:20:28.607Z,23.53
2023-05-10T01:21:28.646Z,23.53
2023-05-10T01:22:28.693Z,23.53
2023-05-10T01:23:28.734Z,23.52
2023-05-10T01:24:28.783Z,23.52
2023-05-10T01:25:28.828Z,23.52
2023-05-10T01:26:28.851Z,23.52
2023-05-10T01:27:28.907Z,23.52
2023-05-10T01:28:28.942Z,23.52
2023-05-10T01:29:28.980Z,23.52
2023-05-10T01:30:29.025Z,23.52
2023-05-10T01:31:29.099Z,23.52
2023-05-10T01:32:29.143Z,23.52
2023-05-10T01:33:29.231Z,23.52
2023-05-10T01:34:29.218Z,23.52
2023-05-10T01:35:29.283Z,23.52
2023-05-10T01:36:29.304Z,23.51
2023-05-10T01:37:29.357Z,23.51
2023-05-10T01:38:29.406Z,23.51
2023-05-10T01:39:29.445Z,23.51
2023-05-10T01:40:29.491Z,23.51
2023-05-10T01:41:29.554Z,23.51
2023-05-10T01:42:29.596Z,23.51
2023-05-10T01:43:29.653Z,23.51
2023-05-10T01:44:29.693Z,23.51
2023-05-10T01:45:29.748Z,23.51
2023-05-10T01:46:29.827Z,23.50
2023-05-10T01:47:29.882Z,23.50
2023-05-10T01:48:29.873Z,23.50
2023-05-10T01:49:29.941Z,23.50
2023-05-10T01:50:29.971Z,23.51
2023-05-10T01:51:30.007Z,23.50
2023-05-10T01:52:30.060Z,23.50
2023-05-10T01:53:30.125Z,23.49
2023-05-10T01:54:30.184Z,23.50
2023-05-10T01:55:30.216Z,23.49
2023-05-10T01:56:30.249Z,23.48
2023-05-10T01:57:30.300Z,23.49
2023-05-10T01:58:30.350Z,23.49
2023-05-10T01:59:30.411Z,23.48
2023-05-10T02:00:30.482Z,23.48
2023-05-10T02:01:30.500Z,23.48
2023-05-10T02:02:30.648Z,23.48
2023-05-10T02:03:30.640Z,23.48
2023-05-10T02:04:30.700Z,23.48
2023-05-10T02:05:30.816Z,23.48
2023-05-10T02:06:30.765Z,23.48
2023-05-10T02:07:30.811Z,23.48
2023-05-10T02:08:30.859Z,23.48
2023-05-10T02:09:30.919Z,23.48
2023-05-10T02:10:30.954Z,23.47
2023-05-10T02:11:31.010Z,23.47
2023-05-10T02:12:31.089Z,23.47
2023-05-10T02:13:31.146Z,23.47
2023-05-10T02:14:31.142Z,23.48
2023-05-10T02:15:31.189Z,23.48
2023-05-10T02:16:31.238Z,23.46
2023-05-10T02:17:31.288Z,23.47
2023-05-10T02:18:31.332Z,23.48
2023-05-10T02:19:31.377Z,23.47
2023-05-10T02:20:31.416Z,23.47
2023-05-10T02:21:31.495Z,23.47
2023-05-10T02:22:31.529Z,23.47
2023-05-10T02:23:31.578Z,23.47
2023-05-10T02:24:31.644Z,23.46
2023-05-10T02:25:31.680Z,23.47
2023-05-10T02:26:31.722Z,23.46
2023-05-10T02:27:31.797Z,23.46
2023-05-10T02:28:31.827Z,23.46
2023-05-10T02:29:31.889Z,23.46
2023-05-10T02:30:31.935Z,23.46
2023-05-10T02:31:32.045Z,23.45
2023-05-10T02:32:32.062Z,23.46
2023-05-10T02:33:32.069Z,23.46
2023-05-10T02:34:32.127Z,23.46
2023-05-10T02:35:32.168Z,23.45
2023-05-10T02:36:32.196Z,23.46
2023-05-10T02:37:32.326Z,23.45
2023-05-10T02:38:32.314Z,23.45
2023-05-10T02:39:32.317Z,23.45
2023-05-10T02:40:32.365Z,23.44
2023-05-10T02:41:32.410Z,23.44
2023-05-10T02:42:32.460Z,23.44
2023-05-10T02:43:32.503Z,23.44
2023-05-10T02:44:32.565Z,23.44
2023-05-10T02:45:32.588Z,23.44
2023-05-10T02:46:32.696Z,23.44
2023-05-10T02:47:32.696Z,23.44
2023-05-10T02:48:32.722Z,23.44
2023-05-10T02:49:32.760Z,23.44
2023-05-10T02:50:32.801Z,23.44
2023-05-10T02:51:32.854Z,23.44
2023-05-10T02:52:32.889Z,23.43
2023-05-10T02:53:33.018Z,23.44
2023-05-10T02:54:33.000Z,23.43
2023-05-10T02:55:33.045Z,23.44
2023-05-10T02:56:33.100Z,23.43
2023-05-10T02:57:33.142Z,23.43
2023-05-10T02:58:33.206Z,23.44
2023-05-10T02:59:33.237Z,23.42
2023-05-10T03:00:33.338Z,23.43
2023-05-10T03:01:33.365Z,23.43
2023-05-10T03:02:33.577Z,23.43
2023-05-10T03:03:33.434Z,23.42
2023-05-10T03:04:33.503Z,23.42
2023-05-10T03:05:33.530Z,23.42
2023-05-10T03:06:33.581Z,23.42
2023-05-10T03:07:33.624Z,23.42
2023-05-10T03:08:33.681Z,23.42
2023-05-10T03:09:33.753Z,23.42
2023-05-10T03:10:33.772Z,23.42
2023-05-10T03:11:33.815Z,23.42
2023-05-10T03:12:33.863Z,23.42
2023-05-10T03:13:33.990Z,23.42
2023-05-10T03:14:33.967Z,23.42
2023-05-10T03:15:34.011Z,23.42
2023-05-10T03:16:34.121Z,23.42
2023-05-10T03:17:34.146Z,23.41
2023-05-10T03:18:34.145Z,23.41
2023-05-10T03:19:34.208Z,23.41
2023-05-10T03:20:34.254Z,23.41
2023-05-10T03:21:34.304Z,23.41
2023-05-10T03:22:34.328Z,23.41
2023-05-10T03:23:34.386Z,23.41
2023-05-10T03:24:34.445Z,23.41
2023-05-10T03:25:34.525Z,23.40
2023-05-10T03:26:34.582Z,23.40
2023-05-10T03:27:34.611Z,23.40
2023-05-10T03:28:34.672Z,23.40
2023-05-10T03:29:34.730Z,23.40
2023-05-10T03:30:34.790Z,23.40
2023-05-10T03:31:34.837Z,23.41
2023-05-10T03:32:34.899Z,23.40
2023-05-10T03:33:34.919Z,23.39
2023-05-10T03:34:34.971Z,23.39
2023-05-10T03:35:35.018Z,23.39
2023-05-10T03:36:35.076Z,23.39
2023-05-10T03:37:35.138Z,23.39
2023-05-10T03:38:35.190Z,23.39
2023-05-10T03:39:35.248Z,23.40
2023-05-10T03:40:35.305Z,23.40
2023-05-10T03:41:35.388Z,23.39
2023-05-10T03:42:35.442Z,23.39
2023-05-10T03:43:35.483Z,23.39
2023-05-10T03:44:35.564Z,23.39
2023-05-10T03:45:35.629Z,23.39
2023-05-10T03:46:35.680Z,23.38
2023-05-10T03:47:35.775Z,23.38
2023-05-10T03:48:35.815Z,23.38
2023-05-10T03:49:35.862Z,23.38
2023-05-10T03:50:35.941Z,23.38
2023-05-10T03:51:35.974Z,23.39
2023-05-10T03:52:36.041Z,23.38
2023-05-10T03:53:36.094Z,23.38
2023-05-10T03:54:36.148Z,23.39
2023-05-10T03:55:36.202Z,23.38
2023-05-10T03:56:36.266Z,23.38
2023-05-10T03:57:36.347Z,23.38
2023-05-10T03:58:36.388Z,23.38
2023-05-10T03:59:36.444Z,23.38
2023-05-10T04:00:36.498Z,23.37
2023-05-10T04:01:36.634Z,23.37
2023-05-10T04:02:36.758Z,23.38
2023-05-10T04:03:36.714Z,23.37
2023-05-10T04:04:36.741Z,23.37
2023-05-10T04:05:36.822Z,23.37
2023-05-10T04:06:36.908Z,23.37
2023-05-10T04:07:36.906Z,23.37
2023-05-10T04:08:36.954Z,23.37
2023-05-10T04:09:37.009Z,23.37
2023-05-10T04:10:37.070Z,23.37
2023-05-10T04:11:37.117Z,23.37
2023-05-10T04:12:37.175Z,23.37
2023-05-10T04:13:37.263Z,23.37
2023-05-10T04:14:37.296Z,23.36
2023-05-10T04:15:37.344Z,23.36
2023-05-10T04:16:37.412Z,23.36
2023-05-10T04:17:37.518Z,23.35
2023-05-10T04:18:37.513Z,23.36
2023-05-10T04:19:37.560Z,23.37
2023-05-10T04:20:37.650Z,23.36
2023-05-10T04:21:37.670Z,23.36
2023-05-10T04:22:37.723Z,23.35
2023-05-10T04:23:37.790Z,23.36
2023-05-10T04:24:37.851Z,23.35
2023-05-10T04:25:37.887Z,23.35
2023-05-10T04:26:37.961Z,23.36
2023-05-10T04:27:38.007Z,23.35
2023-05-10T04:28:38.080Z,23.35
2023-05-10T04:29:38.162Z,23.35
2023-05-10T04:30:38.199Z,23.35
2023-05-10T04:31:38.245Z,23.35
2023-05-10T04:32:38.378Z,23.35
2023-05-10T04:33:38.373Z,23.35
2023-05-10T04:34:38.422Z,23.34
2023-05-10T04:35:38.483Z,23.34
2023-05-10T04:36:38.543Z,23.34
2023-05-10T04:37:38.651Z,23.34
2023-05-10T04:38:38.654Z,23.34
2023-05-10T04:39:40.295Z,23.35
2023-05-10T04:40:38.706Z,23.34
2023-05-10T04:41:38.705Z,23.34
2023-05-10T04:42:38.706Z,23.34
2023-05-10T04:43:38.691Z,23.33
2023-05-10T04:44:38.689Z,23.34
2023-05-10T04:45:38.700Z,23.34
2023-05-10T04:46:38.711Z,23.34
2023-05-10T04:47:38.697Z,23.34
2023-05-10T04:48:38.685Z,23.34
2023-05-10T04:49:38.689Z,23.33
2023-05-10T04:50:38.674Z,23.33
2023-05-10T04:51:38.666Z,23.33
2023-05-10T04:52:38.676Z,23.34
2023-05-10T04:53:38.666Z,23.34
2023-05-10T04:54:38.701Z,23.34
2023-05-10T04:55:38.679Z,23.33
2023-05-10T04:56:38.674Z,23.33
2023-05-10T04:57:38.698Z,23.33
2023-05-10T04:58:37.759Z,23.33
2023-05-10T04:59:38.929Z,23.33
2023-05-10T05:00:38.874Z,23.33
2023-05-10T05:01:38.980Z,23.33
2023-05-10T05:02:39.058Z,23.33
2023-05-10T05:03:39.168Z,23.33
2023-05-10T05:04:39.118Z,23.33
2023-05-10T05:05:39.167Z,23.33
2023-05-10T05:06:39.253Z,23.33
2023-05-10T05:07:39.285Z,23.32
2023-05-10T05:08:39.346Z,23.33
2023-05-10T05:09:39.414Z,23.32
2023-05-10T05:10:39.474Z,23.32
2023-05-10T05:11:39.544Z,23.32
2023-05-10T05:12:39.591Z,23.32
2023-05-10T05:13:39.656Z,23.32
2023-05-10T05:14:39.719Z,23.32
2023-05-10T05:15:39.765Z,23.32
2023-05-10T05:16:39.867Z,23.32
2023-05-10T05:17:40.185Z,23.32
2023-05-10T05:18:39.952Z,23.32
2023-05-10T05:19:40.424Z,23.32
2023-05-10T05:20:40.412Z,23.32
2023-05-10T05:21:40.124Z,23.32
2023-05-10T05:22:40.176Z,23.32
2023-05-10T05:23:40.239Z,23.32
2023-05-10T05:24:40.292Z,23.32
2023-05-10T05:25:40.380Z,23.31
2023-05-10T05:26:40.449Z,23.33
2023-05-10T05:27:40.493Z,23.32
2023-05-10T05:28:40.560Z,23.32
2023-05-10T05:29:40.617Z,23.31
2023-05-10T05:30:40.676Z,23.32
2023-05-10T05:31:40.746Z,23.32
2023-05-10T05:32:40.858Z,23.32
2023-05-10T05:33:40.893Z,23.32
2023-05-10T05:34:40.932Z,23.32
2023-05-10T05:35:40.991Z,23.32
2023-05-10T05:36:41.066Z,23.32
2023-05-10T05:37:41.118Z,23.31
2023-05-10T05:38:41.194Z,23.32
2023-05-10T05:39:41.251Z,23.32
2023-05-10T05:40:41.298Z,23.32
2023-05-10T05:41:41.373Z,23.32
2023-05-10T05:42:41.427Z,23.31
2023-05-10T05:43:41.497Z,23.31
2023-05-10T05:44:41.927Z,23.32
2023-05-10T05:45:41.650Z,23.32
2023-05-10T05:46:41.684Z,23.31
2023-05-10T05:47:41.837Z,23.31
2023-05-10T05:48:41.796Z,23.31
2023-05-10T05:49:41.972Z,23.31
2023-05-10T05:50:42.427Z,23.30
2023-05-10T05:51:41.992Z,23.31
2023-05-10T05:52:42.053Z,23.31
2023-05-10T05:53:42.111Z,23.31
2023-05-10T05:54:42.432Z,23.31
2023-05-10T05:55:42.242Z,23.31
2023-05-10T05:56:42.298Z,23.32
2023-05-10T05:57:42.432Z,23.31
2023-05-10T05:58:42.443Z,23.31
2023-05-10T05:59:42.964Z,23.31
2023-05-10T06:00:42.575Z,23.31
2023-05-10T06:01:43.661Z,23.31
2023-05-10T06:02:43.534Z,23.31
2023-05-10T06:03:46.008Z,23.31
2023-05-10T06:04:50.396Z,23.31
2023-05-10T06:05:42.771Z,23.30
2023-05-10T06:06:42.737Z,23.31
2023-05-10T06:07:42.973Z,23.31
2023-05-10T06:08:42.729Z,23.30
2023-05-10T06:09:42.736Z,23.31
2023-05-10T06:10:42.737Z,23.31
2023-05-10T06:11:42.737Z,23.30
2023-05-10T06:12:42.968Z,23.30
2023-05-10T06:13:42.716Z,23.31
2023-05-10T06:14:42.939Z,23.31
2023-05-10T06:15:42.716Z,23.31
2023-05-10T06:16:42.760Z,23.30
2023-05-10T06:17:42.769Z,23.31
2023-05-10T06:18:42.691Z,23.31
2023-05-10T06:19:42.687Z,23.31
2023-05-10T06:20:42.716Z,23.31
2023-05-10T06:21:42.681Z,23.31
2023-05-10T06:22:42.685Z,23.31
2023-05-10T06:23:42.674Z,23.31
2023-05-10T06:24:42.953Z,23.31
2023-05-10T06:25:42.689Z,23.31
2023-05-10T06:26:42.688Z,23.31
2023-05-10T06:27:42.760Z,23.31
2023-05-10T06:28:42.822Z,23.30
2023-05-10T06:29:42.948Z,23.31
2023-05-10T06:30:42.964Z,23.32
2023-05-10T06:31:43.077Z,23.32
2023-05-10T06:32:43.093Z,23.32
2023-05-10T06:33:43.147Z,23.32
2023-05-10T06:34:43.448Z,23.33
2023-05-10T06:35:43.272Z,23.32
2023-05-10T06:36:43.450Z,23.33
2023-05-10T06:37:43.395Z,23.34
2023-05-10T06:38:43.949Z,23.34
2023-05-10T06:39:43.516Z,23.34
2023-05-10T06:40:43.571Z,23.34
2023-05-10T06:41:43.645Z,23.34
2023-05-10T06:42:43.704Z,23.34
2023-05-10T06:43:43.769Z,23.35
2023-05-10T06:44:43.952Z,23.35
2023-05-10T06:45:43.937Z,23.35
2023-05-10T06:46:44.077Z,23.35
2023-05-10T06:47:44.058Z,23.36
2023-05-10T06:48:44.455Z,23.36
2023-05-10T06:49:44.129Z,23.36
2023-05-10T06:50:44.472Z,23.36
2023-05-10T06:51:44.236Z,23.37
2023-05-10T06:52:44.320Z,23.37
2023-05-10T06:53:44.361Z,23.36
2023-05-10T06:54:44.468Z,23.37
2023-05-10T06:55:44.491Z,23.37
2023-05-10T06:56:44.549Z,23.37
2023-05-10T06:57:44.607Z,23.38
2023-05-10T06:58:44.680Z,23.37
2023-05-10T06:59:44.723Z,23.37
2023-05-10T07:00:48.057Z,23.37
2023-05-10T07:01:44.857Z,23.37
2023-05-10T07:02:44.809Z,23.37
2023-05-10T07:03:45.010Z,23.38
2023-05-10T07:04:45.025Z,23.38
2023-05-10T07:05:44.791Z,23.39
2023-05-10T07:06:44.738Z,23.39
2023-05-10T07:07:44.734Z,23.38
2023-05-10T07:08:44.780Z,23.40
2023-05-10T07:09:44.736Z,23.39
2023-05-10T07:10:44.726Z,23.40
2023-05-10T07:11:44.717Z,23.39
2023-05-10T07:12:44.806Z,23.40
2023-05-10T07:13:44.757Z,23.40
2023-05-10T07:14:44.970Z,23.41
2023-05-10T07:15:44.689Z,23.41
2023-05-10T07:16:46.038Z,23.41
2023-05-10T07:17:46.098Z,23.42
2023-05-10T07:18:44.862Z,23.42
2023-05-10T07:19:44.932Z,23.43
2023-05-10T07:20:45.040Z,23.42
2023-05-10T07:21:45.021Z,23.43
2023-05-10T07:22:45.079Z,23.43
2023-05-10T07:23:45.355Z,23.43
2023-05-10T07:24:45.312Z,23.44
2023-05-10T07:25:45.226Z,23.44
2023-05-10T07:26:45.474Z,23.45
2023-05-10T07:27:45.437Z,23.45
2023-05-10T07:28:45.493Z,23.45
2023-05-10T07:29:45.419Z,23.46
2023-05-10T07:30:45.604Z,23.46
2023-05-10T07:31:46.058Z,23.47
2023-05-10T07:32:47.538Z,23.47
2023-05-10T07:33:45.565Z,23.49
2023-05-10T07:34:46.010Z,23.49
2023-05-10T07:35:45.576Z,23.50
2023-05-10T07:36:45.605Z,23.51
2023-05-10T07:37:45.559Z,23.52
2023-05-10T07:38:45.532Z,23.53
2023-05-10T07:39:46.014Z,23.53
2023-05-10T07:40:45.557Z,23.54
2023-05-10T07:41:45.504Z,23.55
2023-05-10T07:42:45.574Z,23.56
2023-05-10T07:43:45.584Z,23.57
2023-05-10T07:44:46.503Z,23.58
2023-05-10T07:45:45.713Z,23.60
2023-05-10T07:46:45.686Z,23.62
2023-05-10T07:47:45.831Z,23.64
2023-05-10T07:48:45.790Z,23.64
2023-05-10T07:49:45.984Z,23.67
2023-05-10T07:50:45.881Z,23.68
2023-05-10T07:51:46.160Z,23.69
2023-05-10T07:52:45.935Z,23.71
2023-05-10T07:53:45.932Z,23.72
2023-05-10T07:54:46.007Z,23.75
2023-05-10T07:55:53.427Z,23.78
2023-05-10T07:57:46.320Z,23.80
2023-05-10T07:58:45.952Z,23.82
2023-05-10T07:59:45.973Z,23.85
2023-05-10T08:00:45.933Z,23.87
2023-05-10T08:01:46.070Z,23.89
2023-05-10T08:02:45.996Z,23.92
2023-05-10T08:03:47.032Z,23.94
2023-05-10T08:04:45.986Z,23.96
2023-05-10T08:05:45.853Z,23.99
2023-05-10T08:06:46.078Z,24.01
2023-05-10T08:07:45.843Z,24.03
2023-05-10T08:08:46.798Z,24.05
2023-05-10T08:09:45.850Z,24.07
2023-05-10T08:10:45.781Z,24.10
2023-05-10T08:11:45.833Z,24.14
2023-05-10T08:12:45.792Z,24.16
2023-05-10T08:13:46.746Z,24.19
2023-05-10T08:14:45.989Z,24.21
2023-05-10T08:15:45.744Z,24.23
2023-05-10T08:16:45.693Z,24.25
2023-05-10T08:17:45.740Z,24.27
2023-05-10T08:18:45.762Z,24.28
2023-05-10T08:19:45.981Z,24.30
2023-05-10T08:20:45.653Z,24.31
2023-05-10T08:21:45.614Z,24.32
2023-05-10T08:22:45.660Z,24.34
2023-05-10T08:23:45.575Z,24.35
2023-05-10T08:24:45.984Z,24.37
2023-05-10T08:25:45.568Z,24.39
2023-05-10T08:26:45.778Z,24.40
2023-05-10T08:27:45.539Z,24.41
2023-05-10T08:28:45.483Z,24.43
2023-05-10T08:29:50.171Z,24.43
2023-05-10T08:30:45.478Z,24.44
2023-05-10T08:31:45.515Z,24.46
2023-05-10T08:32:45.418Z,24.48
2023-05-10T08:33:45.397Z,24.49
2023-05-10T08:34:45.547Z,24.49
2023-05-10T08:35:45.330Z,24.51
2023-05-10T08:36:45.311Z,24.52
2023-05-10T08:37:45.303Z,24.53
2023-05-10T08:38:45.301Z,24.54
2023-05-10T08:39:46.525Z,24.55
2023-05-10T08:41:17.024Z,24.56
2023-05-10T08:41:45.492Z,24.56
2023-05-10T08:42:45.179Z,24.56
2023-05-10T08:43:48.432Z,24.56
2023-05-10T08:44:46.293Z,24.57
2023-05-10T08:45:45.521Z,24.59
2023-05-10T08:46:45.216Z,24.58
2023-05-10T08:47:45.118Z,24.59
2023-05-10T08:48:45.046Z,24.57
2023-05-10T08:49:45.513Z,24.56
2023-05-10T08:50:45.523Z,24.55
2023-05-10T08:51:44.988Z,24.54
2023-05-10T08:52:44.962Z,24.52
2023-05-10T08:53:44.987Z,24.51
2023-05-10T08:54:44.997Z,24.51
2023-05-10T08:55:44.897Z,24.48
2023-05-10T08:56:44.878Z,24.48
2023-05-10T08:57:44.859Z,24.47
2023-05-10T08:58:44.996Z,24.46
2023-05-10T08:59:45.079Z,24.44
2023-05-10T09:00:45.024Z,24.43
2023-05-10T09:01:44.759Z,24.42
2023-05-10T09:02:44.764Z,24.40
2023-05-10T09:03:44.731Z,24.39
2023-05-10T09:04:44.821Z,24.39
2023-05-10T09:05:44.684Z,24.37
2023-05-10T09:06:44.660Z,24.37
2023-05-10T09:07:44.639Z,24.36
2023-05-10T09:08:44.622Z,24.35
2023-05-10T09:09:44.618Z,24.35
2023-05-10T09:10:45.014Z,24.34
2023-05-10T09:11:44.578Z,24.34
2023-05-10T09:12:44.536Z,24.33
2023-05-10T09:13:44.523Z,24.32
2023-05-10T09:14:45.109Z,24.32
2023-05-10T09:15:44.524Z,24.31
2023-05-10T09:16:44.540Z,24.31
2023-05-10T09:17:44.482Z,24.31
2023-05-10T09:18:44.414Z,24.30
2023-05-10T09:19:44.387Z,24.30
2023-05-10T09:20:44.510Z,24.29
2023-05-10T09:21:48.277Z,24.29
2023-05-10T09:22:44.318Z,24.28
2023-05-10T09:23:45.153Z,24.28
2023-05-10T09:24:44.269Z,24.27
2023-05-10T09:25:44.518Z,24.27
2023-05-10T09:26:44.229Z,24.27
2023-05-10T09:27:44.220Z,24.26
2023-05-10T09:28:44.190Z,24.26
2023-05-10T09:29:44.519Z,24.25
2023-05-10T09:30:44.205Z,24.25
2023-05-10T09:31:44.168Z,24.25
2023-05-10T09:32:44.857Z,24.25
2023-05-10T09:33:44.101Z,24.23
2023-05-10T09:34:44.512Z,24.23
2023-05-10T09:35:44.519Z,24.23
2023-05-10T09:36:44.059Z,24.22
2023-05-10T09:37:44.048Z,24.23
2023-05-10T09:38:44.540Z,24.22
2023-05-10T09:39:44.032Z,24.22
2023-05-10T09:40:44.005Z,24.22
2023-05-10T09:41:43.982Z,24.21
2023-05-10T09:42:43.965Z,24.21
2023-05-10T09:43:44.934Z,24.20
2023-05-10T09:44:43.926Z,24.21
2023-05-10T09:45:44.103Z,24.20
2023-05-10T09:46:43.919Z,24.20
2023-05-10T09:47:43.946Z,24.19
2023-05-10T09:48:43.842Z,24.20
2023-05-10T09:49:44.038Z,24.19
2023-05-10T09:50:43.807Z,24.18
2023-05-10T09:51:43.785Z,24.19
2023-05-10T09:52:43.785Z,24.18
2023-05-10T09:53:44.033Z,24.18
2023-05-10T09:54:44.336Z,24.17
2023-05-10T09:55:43.815Z,24.17
2023-05-10T09:56:45.037Z,24.18
2023-05-10T09:57:43.829Z,24.19
2023-05-10T09:58:43.886Z,24.20
2023-05-10T09:59:43.836Z,24.22
2023-05-10T10:00:44.030Z,24.24
2023-05-10T10:01:43.862Z,24.26
2023-05-10T10:02:43.954Z,24.28
2023-05-10T10:03:43.870Z,24.30
2023-05-10T10:04:43.895Z,24.32
2023-05-10T10:05:44.018Z,24.33
2023-05-10T10:06:43.833Z,24.34
2023-05-10T10:07:43.819Z,24.34
2023-05-10T10:08:43.804Z,24.34
2023-05-10T10:09:43.810Z,24.34
2023-05-10T10:10:44.024Z,24.34
2023-05-10T10:11:43.773Z,24.32
2023-05-10T10:12:43.780Z,24.31
2023-05-10T10:13:43.774Z,24.30
2023-05-10T10:14:43.799Z,24.29
2023-05-10T10:15:44.095Z,24.27
2023-05-10T10:16:55.693Z,24.27
2023-05-10T10:17:43.787Z,24.24
2023-05-10T10:18:44.094Z,24.23
2023-05-10T10:19:43.752Z,24.22
2023-05-10T10:20:44.072Z,24.22
2023-05-10T10:21:43.701Z,24.21
2023-05-10T10:22:43.701Z,24.20
2023-05-10T10:23:43.662Z,24.19
2023-05-10T10:24:43.692Z,24.19
2023-05-10T10:25:44.582Z,24.18
2023-05-10T10:26:43.634Z,24.17
2023-05-10T10:27:43.595Z,24.17
2023-05-10T10:28:43.739Z,24.16
2023-05-10T10:29:43.567Z,24.15
2023-05-10T10:30:44.064Z,24.16
2023-05-10T10:31:43.582Z,24.16
2023-05-10T10:32:43.546Z,24.18
2023-05-10T10:33:43.783Z,24.21
2023-05-10T10:34:43.485Z,24.25
2023-05-10T10:35:43.576Z,24.28
2023-05-10T10:36:44.484Z,24.32
2023-05-10T10:37:43.433Z,24.35
2023-05-10T10:38:43.411Z,24.39
2023-05-10T10:39:43.547Z,24.43
2023-05-10T10:40:43.397Z,24.46
2023-05-10T10:41:43.547Z,24.49
2023-05-10T10:42:43.351Z,24.52
2023-05-10T10:43:43.326Z,24.55
2023-05-10T10:44:43.307Z,24.57
2023-05-10T10:45:43.289Z,24.59
2023-05-10T10:46:43.595Z,24.62
2023-05-10T10:47:43.279Z,24.64
2023-05-10T10:48:43.291Z,24.66
2023-05-10T10:49:43.396Z,24.69
2023-05-10T10:50:43.371Z,24.71
2023-05-10T10:51:43.559Z,24.74
2023-05-10T10:52:43.530Z,24.76
2023-05-10T10:53:43.566Z,24.78
2023-05-10T10:54:43.564Z,24.80
2023-05-10T10:55:43.614Z,24.84
2023-05-10T10:56:43.654Z,24.85
2023-05-10T10:57:44.044Z,24.87
2023-05-10T10:58:43.734Z,24.90
2023-05-10T10:59:43.773Z,24.93
2023-05-10T11:00:43.840Z,24.94
2023-05-10T11:01:44.041Z,24.96
2023-05-10T11:02:43.892Z,24.98
2023-05-10T11:03:43.904Z,25.00
2023-05-10T11:04:44.078Z,25.03
2023-05-10T11:05:44.482Z,25.04
2023-05-10T11:06:43.998Z,25.06
2023-05-10T11:07:44.049Z,25.08
2023-05-10T11:08:44.041Z,25.10
2023-05-10T11:09:44.551Z,25.12
2023-05-10T11:10:44.112Z,25.13
2023-05-10T11:11:44.558Z,25.16
2023-05-10T11:12:44.114Z,25.17
2023-05-10T11:13:44.174Z,25.17
2023-05-10T11:14:44.152Z,25.18
2023-05-10T11:15:44.193Z,25.16
2023-05-10T11:16:44.591Z,25.15
2023-05-10T11:17:44.321Z,25.15
2023-05-10T11:18:44.335Z,25.14
2023-05-10T11:19:44.574Z,25.13
2023-05-10T11:20:44.315Z,25.12
2023-05-10T11:21:44.347Z,25.12
2023-05-10T11:22:44.372Z,25.11
2023-05-10T11:23:44.456Z,25.11
2023-05-10T11:24:44.444Z,25.09
2023-05-10T11:25:44.496Z,25.10
2023-05-10T11:26:44.515Z,25.09
2023-05-10T11:27:44.552Z,25.08
2023-05-10T11:28:44.593Z,25.08
2023-05-10T11:29:44.620Z,25.07
2023-05-10T11:30:44.723Z,25.07
2023-05-10T11:31:45.080Z,25.06
2023-05-10T11:32:44.778Z,25.06
2023-05-10T11:33:44.785Z,25.05
2023-05-10T11:34:44.817Z,25.05
2023-05-10T11:35:44.852Z,25.04
2023-05-10T11:36:44.913Z,25.03
2023-05-10T11:37:44.939Z,25.03
2023-05-10T11:38:44.986Z,25.02
2023-05-10T11:39:45.045Z,25.02
2023-05-10T11:40:45.073Z,25.01
2023-05-10T11:41:45.102Z,25.00
2023-05-10T11:42:45.560Z,25.01
2023-05-10T11:43:45.195Z,25.00
2023-05-10T11:44:46.159Z,25.00
2023-05-10T11:45:45.285Z,24.99
2023-05-10T11:46:46.405Z,24.99
2023-05-10T11:47:45.407Z,24.98
2023-05-10T11:48:45.426Z,24.97
2023-05-10T11:49:45.510Z,24.97
2023-05-10T11:50:45.520Z,24.97
2023-05-10T11:51:45.571Z,24.97
2023-05-10T11:52:45.608Z,24.96
2023-05-10T11:53:45.654Z,24.95
2023-05-10T11:54:45.702Z,24.92
2023-05-10T11:55:45.785Z,24.87
2023-05-10T11:56:45.813Z,24.85
2023-05-10T11:57:45.857Z,24.85
2023-05-10T11:58:46.092Z,24.85
2023-05-10T11:59:45.910Z,24.85
2023-05-10T12:00:45.944Z,24.85
2023-05-10T12:01:46.068Z,24.85
2023-05-10T12:02:46.058Z,24.86
2023-05-10T12:03:46.357Z,24.86
2023-05-10T12:04:46.136Z,24.86
2023-05-10T12:05:46.159Z,24.86
2023-05-10T12:06:46.204Z,24.84
2023-05-10T12:07:46.209Z,24.84
2023-05-10T12:08:46.261Z,24.83
2023-05-10T12:09:46.270Z,24.83
2023-05-10T12:10:46.327Z,24.82
2023-05-10T12:11:46.404Z,24.81
2023-05-10T12:12:46.384Z,24.80
2023-05-10T12:13:46.407Z,24.79
2023-05-10T12:14:49.668Z,24.78
2023-05-10T12:15:46.466Z,24.77
2023-05-10T12:16:46.538Z,24.76
2023-05-10T12:17:46.617Z,24.75
2023-05-10T12:18:46.436Z,24.75
2023-05-10T12:19:46.383Z,24.74
2023-05-10T12:20:46.366Z,24.73
2023-05-10T12:21:46.364Z,24.71
2023-05-10T12:22:46.337Z,24.71
2023-05-10T12:23:46.308Z,24.71
2023-05-10T12:24:47.288Z,24.70
2023-05-10T12:25:46.272Z,24.69
2023-05-10T12:26:46.585Z,24.68
2023-05-10T12:27:46.272Z,24.67
2023-05-10T12:28:46.246Z,24.67
2023-05-10T12:29:46.230Z,24.67
2023-05-10T12:30:46.214Z,24.66
2023-05-10T12:31:46.233Z,24.65
2023-05-10T12:32:46.224Z,24.65
2023-05-10T12:33:46.182Z,24.64
2023-05-10T12:34:46.146Z,24.64
2023-05-10T12:35:46.174Z,24.62
2023-05-10T12:36:46.100Z,24.62
2023-05-10T12:37:46.105Z,24.61
2023-05-10T12:38:46.111Z,24.60
2023-05-10T12:39:46.053Z,24.60
2023-05-10T12:40:46.084Z,24.59
2023-05-10T12:41:46.037Z,24.59
2023-05-10T12:42:46.078Z,24.57
2023-05-10T12:43:46.107Z,24.57
2023-05-10T12:44:45.969Z,24.56
2023-05-10T12:45:45.982Z,24.56
2023-05-10T12:46:45.928Z,24.55
2023-05-10T12:47:46.045Z,24.55
2023-05-10T12:48:45.900Z,24.54
2023-05-10T12:49:45.872Z,24.53
2023-05-10T12:50:45.864Z,24.53
2023-05-10T12:51:45.845Z,24.52
2023-05-10T12:52:45.829Z,24.51
2023-05-10T12:54:44.791Z,24.50